Time;durP1;ratioP1;P1;durP2;ratioP2;P2;SDS_P1;SDS_P2;PMS_P1;PMS_P2;Temp;Humidity;BMP_temperature;BMP_pressure;BME280_temperature;BME280_humidity;BME280_pressure;Samples;Min_cycle;Max_cycle;Signal;HPM_P1;HPM_P2
2021/01/16 00:01:04;;;;;;;14.67;10.33;;;;;;;-0.79;87.69;97689.75;5051606;28;20200;-68
2021/01/16 00:03:30;;;;;;;14.53;10.27;;;;;;;-0.88;88.81;97696.47;5052091;28;20559;-68
2021/01/16 00:05:59;;;;;;;17.53;12.03;;;;;;;-0.84;88.30;97695.28;5051453;28;20181;-68
2021/01/16 00:08:25;;;;;;;18.20;11.47;;;;;;;-0.77;88.50;97698.13;5052025;28;20186;-68
2021/01/16 00:10:58;;;;;;;18.57;11.70;;;;;;;-0.82;88.04;97697.72;5051503;28;20186;-71
2021/01/16 00:13:26;;;;;;;16.90;11.00;;;;;;;-0.85;88.36;97703.94;5052131;28;20220;-69
2021/01/16 00:15:52;;;;;;;15.87;10.90;;;;;;;-0.87;88.65;97690.41;5046570;28;20222;-72
2021/01/16 00:18:19;;;;;;;15.97;11.50;;;;;;;-0.77;88.29;97692.97;5052042;28;20210;-67
2021/01/16 00:20:47;;;;;;;16.27;11.33;;;;;;;-0.80;87.71;97696.66;5051789;28;20531;-67
2021/01/16 00:23:13;;;;;;;16.40;11.57;;;;;;;-0.67;87.63;97691.25;5051297;28;20229;-68
2021/01/16 00:25:38;;;;;;;20.57;11.37;;;;;;;-0.76;87.62;97690.28;5051499;28;20263;-69
2021/01/16 00:28:05;;;;;;;17.70;11.73;;;;;;;-0.73;87.67;97695.19;5051046;28;20232;-68
2021/01/16 00:30:33;;;;;;;17.40;11.67;;;;;;;-0.71;87.90;97693.25;5051447;28;20178;-70
2021/01/16 00:32:59;;;;;;;15.13;10.60;;;;;;;-0.77;87.89;97696.38;5049820;28;20267;-68
2021/01/16 00:35:26;;;;;;;17.73;11.73;;;;;;;-0.72;87.46;97690.81;5051887;28;20549;-67
2021/01/16 00:37:52;;;;;;;16.27;11.73;;;;;;;-0.73;87.68;97694.34;5051421;28;20223;-72
2021/01/16 00:40:25;;;;;;;18.13;11.53;;;;;;;-0.70;87.39;97692.31;5052128;28;20209;-68
2021/01/16 00:42:55;;;;;;;16.80;11.60;;;;;;;-0.76;87.60;97684.31;5051788;28;20184;-73
2021/01/16 00:45:21;;;;;;;17.60;11.57;;;;;;;-0.77;86.99;97691.22;5052130;28;20201;-68
2021/01/16 00:47:48;;;;;;;16.60;11.40;;;;;;;-0.93;87.87;97691.75;5051964;28;20535;-70
2021/01/16 00:50:18;;;;;;;18.53;11.67;;;;;;;-0.94;88.00;97691.88;5050336;28;20201;-71
2021/01/16 00:52:55;;;;;;;17.03;11.60;;;;;;;-0.91;87.88;97686.47;5051754;28;20194;-70
2021/01/16 00:55:21;;;;;;;16.20;11.10;;;;;;;-0.66;87.06;97682.56;5051770;28;20365;-70
2021/01/16 00:57:46;;;;;;;17.70;12.10;;;;;;;-0.65;86.84;97690.16;5051478;28;20209;-70
2021/01/16 01:00:12;;;;;;;16.47;10.93;;;;;;;-0.73;86.65;97690.03;5050771;28;20731;-70
2021/01/16 01:02:41;;;;;;;15.43;10.53;;;;;;;-0.68;86.63;97684.47;5051367;28;20266;-70
2021/01/16 01:05:09;;;;;;;16.30;10.70;;;;;;;-0.68;86.49;97687.03;5050724;28;20190;-70
2021/01/16 01:07:34;;;;;;;17.17;11.10;;;;;;;-0.70;86.47;97684.59;5051285;28;20177;-71
2021/01/16 01:10:00;;;;;;;15.57;10.57;;;;;;;-0.72;86.27;97689.06;5050552;28;20213;-70
2021/01/16 01:12:25;;;;;;;16.83;11.07;;;;;;;-0.69;86.10;97686.22;5050748;28;20197;-69
2021/01/16 01:14:51;;;;;;;14.27;10.17;;;;;;;-0.83;85.91;97684.03;5051204;28;20194;-74
2021/01/16 01:17:17;;;;;;;16.67;11.17;;;;;;;-0.73;85.52;97697.75;5049988;28;20182;-70
2021/01/16 01:19:43;;;;;;;16.87;11.17;;;;;;;-0.69;85.96;97695.72;5051518;28;20192;-71
2021/01/16 01:22:09;;;;;;;16.90;10.67;;;;;;;-0.67;84.95;97692.03;5050937;28;20194;-69
2021/01/16 01:24:36;;;;;;;18.53;11.77;;;;;;;-0.68;85.17;97690.44;5051299;28;20187;-71
2021/01/16 01:27:02;;;;;;;15.53;10.37;;;;;;;-0.81;85.70;97694.19;5050301;28;20271;-69
2021/01/16 01:29:27;;;;;;;15.53;10.87;;;;;;;-0.72;86.27;97688.25;5051294;28;20182;-69
2021/01/16 01:31:53;;;;;;;14.67;10.57;;;;;;;-0.80;85.21;97694.06;5050917;28;20698;-72
2021/01/16 01:34:18;;;;;;;16.00;10.57;;;;;;;-0.77;85.27;97693.78;5051026;28;20182;-70
2021/01/16 01:36:43;;;;;;;16.50;11.03;;;;;;;-0.77;85.62;97692.97;5051340;28;20537;-69
2021/01/16 01:39:09;;;;;;;19.30;11.27;;;;;;;-0.84;86.34;97697.88;5050207;28;20548;-69
2021/01/16 01:41:38;;;;;;;16.47;11.03;;;;;;;-0.69;85.21;97693.94;5050874;28;20289;-69
2021/01/16 01:44:05;;;;;;;17.20;11.13;;;;;;;-0.79;85.06;97697.47;5034698;28;20186;-69
2021/01/16 01:46:31;;;;;;;16.03;11.00;;;;;;;-0.82;85.37;97693.38;5037430;28;20230;-68
2021/01/16 01:48:57;;;;;;;20.20;12.60;;;;;;;-0.77;85.92;97693.78;5054816;28;20185;-69
2021/01/16 01:51:24;;;;;;;16.23;10.37;;;;;;;-0.74;85.18;97693.53;5037516;28;20176;-69
2021/01/16 01:53:51;;;;;;;18.30;11.10;;;;;;;-0.70;85.46;97692.31;5055163;28;20629;-68
2021/01/16 01:56:19;;;;;;;18.80;10.97;;;;;;;-0.62;85.02;97700.19;5036012;28;20278;-69
2021/01/16 01:58:48;;;;;;;16.27;10.33;;;;;;;-0.54;84.51;97690.03;5054965;28;20190;-68
2021/01/16 02:01:17;;;;;;;15.00;10.67;;;;;;;-0.52;84.73;97692.47;5054131;28;20178;-68
2021/01/16 02:03:44;;;;;;;17.87;11.33;;;;;;;-0.46;84.17;97694.50;5054244;28;20182;-68
2021/01/16 02:06:10;;;;;;;18.07;11.17;;;;;;;-0.47;84.31;97688.53;5052291;28;20543;-70
2021/01/16 02:08:35;;;;;;;16.63;11.03;;;;;;;-0.49;84.11;97685.28;5053391;28;20182;-69
2021/01/16 02:11:01;;;;;;;17.27;10.40;;;;;;;-0.56;83.46;97691.13;5053272;28;20188;-68
2021/01/16 02:13:27;;;;;;;14.87;10.30;;;;;;;-0.55;84.69;97692.72;5054648;28;20214;-68
2021/01/16 02:16:12;;;;;;;18.10;11.83;;;;;;;-0.46;84.07;97690.19;5054350;28;20240;-69
2021/01/16 02:18:41;;;;;;;15.90;10.60;;;;;;;-0.48;84.07;97691.25;5054603;28;20181;-70
2021/01/16 02:21:07;;;;;;;16.00;10.60;;;;;;;-0.40;84.09;97688.81;5035067;28;20188;-69
2021/01/16 02:23:40;;;;;;;16.27;11.30;;;;;;;-0.42;84.08;97681.22;5041736;28;20269;-69
2021/01/16 02:26:20;;;;;;;18.97;12.33;;;;;;;-0.37;83.59;97685.16;5052849;28;20261;-68
2021/01/16 02:28:57;;;;;;;17.17;10.63;;;;;;;-0.38;84.16;97686.91;5054339;28;20265;-69
2021/01/16 02:31:41;;;;;;;18.40;11.90;;;;;;;-0.47;84.22;97682.59;5046134;28;20192;-68
2021/01/16 02:34:11;;;;;;;16.70;11.37;;;;;;;-0.45;84.05;97681.47;5053588;28;20267;-68
2021/01/16 02:37:13;;;;;;;19.20;12.13;;;;;;;-0.36;83.54;97674.72;5054251;28;20178;-68
2021/01/16 02:39:50;;;;;;;18.00;11.03;;;;;;;-0.43;83.83;97671.88;5041841;28;20181;-68
2021/01/16 02:42:57;;;;;;;19.43;11.97;;;;;;;-0.36;83.85;97673.91;5019639;28;20184;-69
2021/01/16 02:45:29;;;;;;;19.50;12.43;;;;;;;-0.38;83.43;97681.75;5039202;28;20198;-68
2021/01/16 02:47:57;;;;;;;19.63;11.73;;;;;;;-0.45;84.21;97681.47;5053723;28;20257;-72
2021/01/16 02:50:23;;;;;;;20.73;12.30;;;;;;;-0.44;84.73;97675.38;5053220;28;20280;-69
2021/01/16 02:52:50;;;;;;;19.67;11.73;;;;;;;-0.35;84.81;97691.00;5053836;28;20289;-69
2021/01/16 02:55:21;;;;;;;18.60;11.60;;;;;;;-0.31;84.31;97682.84;5051192;28;20251;-69
2021/01/16 02:57:46;;;;;;;17.13;11.77;;;;;;;-0.33;84.21;97673.63;5053933;28;20227;-69
2021/01/16 03:00:16;;;;;;;18.23;12.00;;;;;;;-0.33;84.34;97679.59;5053349;28;20579;-69
2021/01/16 03:02:41;;;;;;;18.60;11.90;;;;;;;-0.25;83.92;97684.88;5053455;28;20228;-69
2021/01/16 03:05:07;;;;;;;16.87;11.40;;;;;;;-0.37;84.31;97688.53;5052805;28;20213;-69
2021/01/16 03:07:34;;;;;;;18.87;11.10;;;;;;;-0.39;84.31;97674.97;5036164;28;20178;-69
2021/01/16 03:10:08;;;;;;;18.83;12.10;;;;;;;-0.29;84.60;97677.56;5035111;28;20634;-70
2021/01/16 03:12:34;;;;;;;18.03;11.93;;;;;;;-0.11;83.72;97683.63;5053667;28;20197;-69
2021/01/16 03:15:13;;;;;;;20.93;11.90;;;;;;;-0.22;84.11;97676.03;5051681;28;20204;-69
2021/01/16 03:17:43;;;;;;;18.27;12.03;;;;;;;-0.25;84.33;97678.91;5039242;28;20170;-69
2021/01/16 03:20:09;;;;;;;20.43;12.60;;;;;;;-0.22;83.75;97682.00;5052795;28;20181;-69
2021/01/16 03:22:35;;;;;;;18.30;11.83;;;;;;;-0.25;84.17;97682.31;5053692;28;20240;-68
2021/01/16 03:25:00;;;;;;;17.43;11.00;;;;;;;-0.22;84.29;97678.63;5052483;28;20689;-69
2021/01/16 03:27:26;;;;;;;19.37;12.57;;;;;;;-0.18;83.83;97675.66;5053757;28;20684;-70
2021/01/16 03:29:53;;;;;;;19.50;11.77;;;;;;;-0.21;83.86;97672.53;5053491;28;20193;-69
2021/01/16 03:32:19;;;;;;;14.43;10.90;;;;;;;-0.30;83.18;97668.22;5052700;28;20206;-69
2021/01/16 03:34:46;;;;;;;17.37;12.07;;;;;;;-0.25;83.61;97671.19;5035174;28;20190;-71
2021/01/16 03:37:13;;;;;;;17.80;11.90;;;;;;;-0.30;83.91;97676.75;5051925;28;20186;-68
2021/01/16 03:39:40;;;;;;;16.47;11.33;;;;;;;-0.38;84.49;97674.03;5053112;28;20186;-69
2021/01/16 03:42:06;;;;;;;17.17;11.80;;;;;;;-0.27;83.93;97679.03;5034418;28;20186;-72
2021/01/16 03:44:32;;;;;;;18.13;11.73;;;;;;;-0.19;84.03;97675.78;5052817;28;20240;-69
2021/01/16 03:46:57;;;;;;;18.47;12.10;;;;;;;-0.27;84.13;97678.22;5034961;28;20634;-72
2021/01/16 03:49:23;;;;;;;19.67;12.60;;;;;;;-0.39;84.34;97667.25;5035071;28;20182;-69
2021/01/16 03:51:49;;;;;;;17.37;11.90;;;;;;;-0.40;84.67;97670.81;5051707;28;20178;-69
2021/01/16 03:54:14;;;;;;;19.23;12.60;;;;;;;-0.33;84.45;97669.28;5051806;28;20194;-69
2021/01/16 03:56:40;;;;;;;18.90;12.80;;;;;;;-0.30;84.45;97670.78;5052769;28;20210;-69
2021/01/16 03:59:05;;;;;;;20.47;13.63;;;;;;;-0.22;83.57;97674.28;5050568;28;20170;-69
2021/01/16 04:01:33;;;;;;;20.40;13.27;;;;;;;-0.21;83.84;97677.69;5051506;28;20186;-69
2021/01/16 04:03:59;;;;;;;20.80;13.23;;;;;;;-0.32;84.26;97675.25;5052025;28;20201;-73
2021/01/16 04:06:25;;;;;;;20.67;12.97;;;;;;;-0.25;84.04;97679.72;5051422;28;20639;-68
2021/01/16 04:08:50;;;;;;;23.93;13.83;;;;;;;-0.24;84.48;97675.41;5053182;28;20188;-69
2021/01/16 04:11:16;;;;;;;19.57;13.53;;;;;;;-0.30;84.58;97679.31;5051238;28;20786;-69
2021/01/16 04:13:42;;;;;;;20.37;13.50;;;;;;;-0.31;84.72;97676.88;5052260;28;20694;-69
2021/01/16 04:16:07;;;;;;;22.17;13.67;;;;;;;-0.29;84.50;97675.00;5051755;28;20182;-69
2021/01/16 04:18:34;;;;;;;21.83;13.77;;;;;;;-0.25;84.25;97682.31;5052319;28;20193;-69
2021/01/16 04:20:59;;;;;;;21.50;13.97;;;;;;;-0.11;84.06;97688.78;5033789;28;20174;-72
2021/01/16 04:23:25;;;;;;;20.37;13.33;;;;;;;-0.33;84.37;97684.72;5051484;28;20185;-68
2021/01/16 04:25:50;;;;;;;20.57;13.67;;;;;;;-0.26;83.97;97682.44;5033333;28;20635;-69
2021/01/16 04:28:16;;;;;;;20.67;13.87;;;;;;;-0.37;84.62;97678.25;5051366;28;20186;-68
2021/01/16 04:30:41;;;;;;;22.97;14.47;;;;;;;-0.34;84.79;97682.31;5052037;28;20178;-69
2021/01/16 04:33:07;;;;;;;22.57;13.40;;;;;;;-0.40;84.82;97683.66;5051501;28;20559;-69
2021/01/16 04:35:33;;;;;;;20.63;13.43;;;;;;;-0.34;84.43;97680.56;5051068;28;20181;-68
2021/01/16 04:37:59;;;;;;;20.80;13.83;;;;;;;-0.54;85.13;97687.44;5051321;28;20265;-72
2021/01/16 04:40:24;;;;;;;19.80;13.50;;;;;;;-0.35;85.15;97688.41;5051817;28;20289;-68
2021/01/16 04:42:51;;;;;;;21.07;13.50;;;;;;;-0.41;85.04;97679.47;5051260;28;20209;-69
2021/01/16 04:45:17;;;;;;;20.03;13.53;;;;;;;-0.33;84.66;97677.00;5051259;28;20662;-69
2021/01/16 04:47:44;;;;;;;22.17;13.93;;;;;;;-0.32;84.48;97675.25;5051412;28;20190;-69
2021/01/16 04:50:14;;;;;;;21.30;13.90;;;;;;;-0.20;83.93;97681.88;5033144;28;20281;-68
2021/01/16 04:52:41;;;;;;;23.00;14.80;;;;;;;-0.24;83.80;97681.34;5051519;28;20550;-69
2021/01/16 04:55:09;;;;;;;21.10;13.63;;;;;;;-0.30;83.79;97678.50;5032965;28;20182;-69
2021/01/16 04:57:37;;;;;;;19.70;13.00;;;;;;;-0.38;83.71;97671.47;5033438;28;20220;-69
2021/01/16 05:00:09;;;;;;;21.57;13.23;;;;;;;-0.49;84.46;97674.16;5033039;28;20174;-69
2021/01/16 05:02:37;;;;;;;18.77;12.70;;;;;;;-0.30;83.39;97669.03;5033422;28;20515;-71
2021/01/16 05:05:04;;;;;;;20.40;13.00;;;;;;;-0.32;83.41;97665.75;5043290;28;20252;-69
2021/01/16 05:07:31;;;;;;;19.83;12.83;;;;;;;-0.36;83.39;97659.28;5051308;28;20182;-69
2021/01/16 05:09:59;;;;;;;21.60;13.63;;;;;;;-0.38;83.86;97663.72;5050586;28;20182;-73
2021/01/16 05:12:31;;;;;;;20.80;12.83;;;;;;;-0.36;83.65;97663.59;5049713;28;20206;-69
2021/01/16 05:15:05;;;;;;;22.47;14.20;;;;;;;-0.29;83.61;97668.09;5051385;28;20224;-69
2021/01/16 05:17:35;;;;;;;25.60;13.43;;;;;;;-0.15;82.97;97666.81;5047070;28;20192;-69
2021/01/16 05:20:01;;;;;;;21.17;14.00;;;;;;;-0.27;82.56;97662.78;5050915;28;20257;-70
2021/01/16 05:22:27;;;;;;;19.43;12.57;;;;;;;-0.12;81.69;97669.16;5051152;28;20269;-69
2021/01/16 05:25:00;;;;;;;18.00;11.97;;;;;;;-0.29;82.17;97662.13;5050748;28;20217;-69
2021/01/16 05:27:33;;;;;;;18.33;11.83;;;;;;;-0.44;82.96;97662.50;5050859;28;20283;-69
2021/01/16 05:30:06;;;;;;;18.87;12.27;;;;;;;-0.47;82.70;97659.41;5033082;28;20182;-72
2021/01/16 05:32:32;;;;;;;18.20;12.07;;;;;;;-0.57;83.21;97664.56;5051260;28;20201;-68
2021/01/16 05:35:21;;;;;;;20.27;12.80;;;;;;;-0.61;83.85;97665.75;5050946;28;20280;-72
2021/01/16 05:37:48;;;;;;;17.47;11.20;;;;;;;-0.51;83.02;97671.75;5036654;28;20202;-69
2021/01/16 05:40:18;;;;;;;18.80;12.83;;;;;;;-0.43;83.31;97666.72;5050374;28;20540;-71
2021/01/16 05:42:43;;;;;;;21.90;13.23;;;;;;;-0.51;83.37;97664.03;5051578;28;20184;-69
2021/01/16 05:45:11;;;;;;;18.53;12.50;;;;;;;-0.50;83.26;97668.19;5032258;28;20186;-69
2021/01/16 05:47:41;;;;;;;20.73;12.90;;;;;;;-0.54;83.09;97671.19;5050665;28;20174;-69
2021/01/16 05:50:10;;;;;;;19.50;12.37;;;;;;;-0.48;82.99;97674.03;5050154;28;20178;-69
2021/01/16 05:52:38;;;;;;;21.07;13.40;;;;;;;-0.34;82.78;97674.59;5032725;28;20260;-69
2021/01/16 05:55:05;;;;;;;22.97;13.60;;;;;;;-0.52;83.50;97677.03;5031698;28;20189;-70
2021/01/16 05:57:31;;;;;;;19.63;12.57;;;;;;;-0.53;83.17;97672.81;5051147;28;20324;-69
2021/01/16 05:59:59;;;;;;;23.10;13.73;;;;;;;-0.45;83.59;97668.59;5033140;28;20182;-73
2021/01/16 06:02:32;;;;;;;19.27;12.70;;;;;;;-0.60;84.13;97662.25;5050931;28;20203;-69
2021/01/16 06:04:58;;;;;;;22.70;14.20;;;;;;;-0.51;83.73;97666.59;5050750;28;20178;-73
2021/01/16 06:07:26;;;;;;;24.50;13.77;;;;;;;-0.47;83.14;97656.84;5050563;28;20246;-69
2021/01/16 06:09:53;;;;;;;22.00;13.20;;;;;;;-0.53;83.92;97668.50;5050935;28;20203;-69
2021/01/16 06:12:20;;;;;;;19.13;13.40;;;;;;;-0.38;83.69;97661.16;5049931;28;20834;-69
2021/01/16 06:14:47;;;;;;;22.97;14.03;;;;;;;-0.38;83.56;97657.75;5050666;28;20182;-69
2021/01/16 06:17:15;;;;;;;21.63;13.90;;;;;;;-0.33;83.09;97658.16;5049695;28;20186;-70
2021/01/16 06:19:49;;;;;;;22.50;13.70;;;;;;;-0.50;83.67;97659.66;5034791;28;20602;-69
2021/01/16 06:22:17;;;;;;;21.50;14.10;;;;;;;-0.45;83.97;97658.31;5050169;28;20211;-69
2021/01/16 06:24:49;;;;;;;22.97;14.63;;;;;;;-0.46;83.45;97654.13;5049456;28;20174;-70
2021/01/16 06:27:23;;;;;;;22.23;13.97;;;;;;;-0.55;84.31;97657.50;5049743;28;20226;-70
2021/01/16 06:30:00;;;;;;;22.53;14.00;;;;;;;-0.60;84.32;97661.44;5034043;28;20712;-70
2021/01/16 06:32:27;;;;;;;23.10;14.30;;;;;;;-0.58;84.29;97657.78;5054093;28;20233;-69
2021/01/16 06:35:07;;;;;;;23.33;14.53;;;;;;;-0.57;84.32;97656.84;5046424;28;20186;-69
2021/01/16 06:37:32;;;;;;;24.03;14.30;;;;;;;-0.54;84.29;97655.75;5045092;28;20209;-70
2021/01/16 06:39:58;;;;;;;24.30;14.43;;;;;;;-0.42;84.16;97650.31;5029417;28;20202;-72
2021/01/16 06:42:28;;;;;;;23.00;14.47;;;;;;;-0.42;83.97;97652.09;5044072;28;20218;-69
2021/01/16 06:45:09;;;;;;;21.90;14.20;;;;;;;-0.32;83.74;97652.06;5041088;28;20248;-69
2021/01/16 06:47:36;;;;;;;24.30;15.20;;;;;;;-0.47;83.98;97657.66;5051848;28;20651;-69
2021/01/16 06:50:07;;;;;;;22.00;13.80;;;;;;;-0.53;84.06;97653.03;5053414;28;20303;-70
2021/01/16 06:52:37;;;;;;;21.53;14.33;;;;;;;-0.43;83.55;97653.03;5036229;28;20198;-70
2021/01/16 06:55:05;;;;;;;23.33;14.90;;;;;;;-0.27;83.16;97655.03;5035334;28;20190;-69
2021/01/16 06:57:32;;;;;;;24.03;14.43;;;;;;;-0.59;83.83;97645.84;5052703;28;20214;-66
2021/01/16 06:59:59;;;;;;;23.23;13.63;;;;;;;-0.68;83.76;97649.25;5019464;28;20227;-76
2021/01/16 07:02:32;;;;;;;24.57;14.23;;;;;;;-0.50;83.56;97646.78;5035949;28;20700;-71
2021/01/16 07:05:16;;;;;;;24.03;14.43;;;;;;;-0.40;83.05;97651.97;5051843;28;20208;-76
2021/01/16 07:07:46;;;;;;;21.77;13.93;;;;;;;-0.41;83.58;97646.00;5044238;28;20174;-70
2021/01/16 07:10:14;;;;;;;26.30;14.80;;;;;;;-0.27;82.02;97642.16;5042798;28;20525;-70
2021/01/16 07:12:48;;;;;;;22.93;14.73;;;;;;;-0.24;82.14;97636.75;5053269;28;20202;-70
2021/01/16 07:15:15;;;;;;;22.47;14.77;;;;;;;-0.23;81.79;97646.13;5053100;28;20169;-70
2021/01/16 07:17:41;;;;;;;24.17;14.43;;;;;;;-0.29;82.24;97641.50;5053429;28;20190;-71
2021/01/16 07:20:08;;;;;;;21.93;14.60;;;;;;;-0.25;82.49;97648.00;5052555;28;20186;-70
2021/01/16 07:22:41;;;;;;;23.13;15.07;;;;;;;-0.27;82.31;97652.47;5053428;28;20236;-70
2021/01/16 07:25:08;;;;;;;22.87;14.00;;;;;;;-0.20;82.05;97651.78;5052039;28;20542;-67
2021/01/16 07:27:34;;;;;;;24.07;15.20;;;;;;;-0.11;81.57;97650.94;5053199;28;20234;-71
2021/01/16 07:30:00;;;;;;;24.17;14.83;;;;;;;-0.11;81.79;97652.72;5052802;28;20257;-74
2021/01/16 07:32:37;;;;;;;21.70;14.33;;;;;;;-0.15;81.66;97661.69;5052640;28;20733;-69
2021/01/16 07:35:03;;;;;;;25.17;14.80;;;;;;;-0.06;81.28;97653.94;5042433;28;20169;-71
2021/01/16 07:37:31;;;;;;;22.73;14.57;;;;;;;-0.11;81.46;97663.03;5018860;28;20243;-70
2021/01/16 07:39:57;;;;;;;23.27;13.90;;;;;;;0.04;80.83;97663.41;5053190;28;20194;-70
2021/01/16 07:42:25;;;;;;;23.60;14.47;;;;;;;0.08;80.63;97660.41;5051857;28;20182;-71
2021/01/16 07:45:07;;;;;;;21.37;14.23;;;;;;;-0.04;81.32;97664.91;5053056;28;20212;-71
2021/01/16 07:47:41;;;;;;;21.50;13.67;;;;;;;-0.12;81.83;97669.16;5052910;28;20185;-71
2021/01/16 07:50:24;;;;;;;20.30;13.60;;;;;;;-0.01;80.75;97661.25;5050915;28;20642;-71
2021/01/16 07:53:20;;;;;;;20.33;13.20;;;;;;;0.04;80.23;97664.22;5052773;28;20202;-71
2021/01/16 07:55:46;;;;;;;21.13;12.60;;;;;;;-0.27;80.86;97663.59;5037455;28;20569;-71
2021/01/16 07:58:33;;;;;;;21.40;13.73;;;;;;;-0.14;81.60;97671.84;5051434;28;20178;-70
2021/01/16 08:01:13;;;;;;;20.53;13.53;;;;;;;-0.14;81.86;97668.47;5052394;28;20181;-72
2021/01/16 08:03:45;;;;;;;17.90;12.27;;;;;;;-0.21;81.21;97668.19;5034833;28;20185;-69
2021/01/16 08:06:29;;;;;;;21.13;14.13;;;;;;;-0.10;81.31;97673.19;5051932;28;20204;-70
2021/01/16 08:09:04;;;;;;;19.93;13.13;;;;;;;-0.06;81.35;97671.16;5051265;28;20235;-71
2021/01/16 08:11:34;;;;;;;23.07;13.93;;;;;;;0.01;80.93;97669.66;5052730;28;20573;-72
2021/01/16 08:14:05;;;;;;;22.17;13.93;;;;;;;-0.08;80.58;97670.47;5052303;28;20552;-71
2021/01/16 08:16:31;;;;;;;22.73;14.23;;;;;;;-0.15;81.39;97665.06;5052696;28;20192;-70
2021/01/16 08:19:18;;;;;;;21.67;13.90;;;;;;;-0.14;81.88;97658.97;5051944;28;20232;-71
2021/01/16 08:21:55;;;;;;;20.60;12.90;;;;;;;-0.07;82.01;97651.50;5034771;28;20269;-70
2021/01/16 08:24:22;;;;;;;21.63;14.10;;;;;;;-0.06;82.13;97658.28;5051668;28;20740;-71
2021/01/16 08:26:58;;;;;;;25.13;13.80;;;;;;;-0.03;82.74;97651.09;5051706;28;20226;-73
2021/01/16 08:29:24;;;;;;;24.87;14.83;;;;;;;0.15;82.30;97651.19;5035360;28;20181;-68
2021/01/16 08:32:02;;;;;;;23.73;14.70;;;;;;;0.16;81.40;97652.00;5034431;28;20658;-66
2021/01/16 08:34:47;;;;;;;20.67;13.37;;;;;;;0.11;81.92;97646.44;5052129;28;20174;-66
2021/01/16 08:37:25;;;;;;;22.90;13.43;;;;;;;0.27;82.07;97644.09;5032946;28;20273;-67
2021/01/16 08:39:51;;;;;;;23.20;14.43;;;;;;;0.32;81.42;97642.72;5031187;28;20175;-66
2021/01/16 08:42:24;;;;;;;20.13;13.47;;;;;;;0.34;82.28;97643.38;5041992;28;20189;-66
2021/01/16 08:44:55;;;;;;;20.43;13.30;;;;;;;0.37;81.82;97645.69;5041046;28;20175;-65
2021/01/16 08:47:21;;;;;;;22.23;14.83;;;;;;;0.41;82.17;97641.84;5050328;28;20262;-64
2021/01/16 08:49:46;;;;;;;21.17;13.83;;;;;;;0.44;81.44;97645.13;5051847;28;20182;-66
2021/01/16 08:52:12;;;;;;;19.40;13.20;;;;;;;0.52;81.05;97634.88;5050272;28;20288;-69
2021/01/16 08:54:37;;;;;;;22.80;13.60;;;;;;;0.53;80.90;97641.69;5051651;28;20635;-69
2021/01/16 08:57:13;;;;;;;16.40;12.10;;;;;;;0.48;80.18;97641.28;5050752;28;20190;-69
2021/01/16 08:59:39;;;;;;;20.43;12.87;;;;;;;0.48;80.30;97643.88;5051671;28;20254;-69
2021/01/16 09:02:11;;;;;;;21.13;13.40;;;;;;;0.48;80.67;97644.69;5050444;28;20276;-67
2021/01/16 09:04:41;;;;;;;18.93;12.37;;;;;;;0.50;81.36;97647.13;5051592;28;20193;-66
2021/01/16 09:07:22;;;;;;;19.30;12.97;;;;;;;0.52;80.83;97643.44;5050884;28;20178;-68
2021/01/16 09:09:59;;;;;;;18.40;12.27;;;;;;;0.60;80.79;97640.97;5051373;28;20178;-67
2021/01/16 09:12:38;;;;;;;19.33;12.60;;;;;;;0.60;80.06;97642.75;5050669;28;20189;-67
2021/01/16 09:15:39;;;;;;;20.33;11.73;;;;;;;0.60;80.35;97646.13;5036233;28;20181;-68
2021/01/16 09:18:07;;;;;;;18.87;12.60;;;;;;;0.59;80.84;97647.06;5050557;28;20185;-69
2021/01/16 09:20:38;;;;;;;20.50;13.57;;;;;;;0.55;81.53;97653.47;5053724;28;20186;-68
2021/01/16 09:23:18;;;;;;;21.90;13.77;;;;;;;0.72;80.69;97647.56;5049314;28;20277;-68
2021/01/16 09:25:44;;;;;;;21.23;13.67;;;;;;;0.79;81.32;97655.53;5049831;28;20224;-68
2021/01/16 09:28:09;;;;;;;21.77;14.67;;;;;;;0.76;80.90;97661.78;5044875;28;20237;-67
2021/01/16 09:30:35;;;;;;;22.27;13.77;;;;;;;0.74;81.45;97661.13;5044850;28;20183;-68
2021/01/16 09:33:19;;;;;;;21.67;14.00;;;;;;;0.78;81.37;97662.44;5029805;28;20211;-68
2021/01/16 09:35:45;;;;;;;20.17;13.80;;;;;;;0.72;81.00;97657.88;5024832;28;20193;-68
2021/01/16 09:38:17;;;;;;;21.33;14.13;;;;;;;0.82;81.54;97661.22;5015300;28;20195;-67
2021/01/16 09:40:43;;;;;;;20.33;13.90;;;;;;;0.75;81.98;97665.31;5028471;28;20179;-66
2021/01/16 09:43:24;;;;;;;21.13;14.67;;;;;;;0.71;81.35;97663.19;5029420;28;20183;-67
2021/01/16 09:45:55;;;;;;;16.73;11.07;;;;;;;0.55;79.59;97661.22;5030864;28;20179;-66
2021/01/16 09:48:41;;;;;;;15.20;11.13;;;;;;;0.74;78.82;97665.47;5025883;28;20232;-71
2021/01/16 09:51:08;;;;;;;18.40;11.83;;;;;;;0.90;78.38;97654.50;5025172;28;20182;-67
2021/01/16 09:53:34;;;;;;;17.80;12.37;;;;;;;0.87;78.20;97659.97;5031291;28;20293;-67
2021/01/16 09:55:59;;;;;;;19.13;12.80;;;;;;;0.90;78.21;97652.75;5030211;28;20203;-65
2021/01/16 09:58:42;;;;;;;17.50;11.53;;;;;;;0.93;79.58;97649.91;5030546;28;20244;-70
2021/01/16 10:01:14;;;;;;;18.77;12.70;;;;;;;0.86;78.33;97654.00;5029805;28;20189;-68
2021/01/16 10:03:41;;;;;;;19.07;12.43;;;;;;;0.94;78.14;97641.19;5025729;28;20566;-73
2021/01/16 10:06:07;;;;;;;20.03;12.17;;;;;;;1.10;77.32;97654.28;5032467;28;20187;-72
2021/01/16 10:08:33;;;;;;;18.83;11.97;;;;;;;1.11;77.29;97644.75;5034028;28;20193;-72
2021/01/16 10:11:01;;;;;;;17.83;11.60;;;;;;;1.17;76.59;97650.13;5032319;28;20662;-72
2021/01/16 10:13:39;;;;;;;15.63;10.93;;;;;;;1.33;75.12;97631.41;5034251;28;20242;-67
2021/01/16 10:16:07;;;;;;;14.53;10.33;;;;;;;1.21;74.79;97638.56;5032799;28;20190;-69
2021/01/16 10:18:34;;;;;;;14.03;9.57;;;;;;;1.10;75.14;97630.22;5029061;28;20666;-69
2021/01/16 10:21:04;;;;;;;13.63;9.43;;;;;;;1.25;74.76;97624.41;5040678;28;20244;-71
2021/01/16 10:23:32;;;;;;;15.63;9.57;;;;;;;1.32;73.72;97618.66;5034211;28;20186;-70
2021/01/16 10:26:17;;;;;;;11.17;7.87;;;;;;;1.30;69.35;97605.06;5050692;28;20186;-69
2021/01/16 10:28:48;;;;;;;9.80;7.60;;;;;;;1.19;70.11;97600.94;5044159;28;20197;-70
2021/01/16 10:31:14;;;;;;;11.97;7.67;;;;;;;1.05;71.54;97597.13;5052709;28;20182;-69
2021/01/16 10:33:42;;;;;;;9.77;7.40;;;;;;;1.38;70.35;97593.03;5035766;28;20221;-70
2021/01/16 10:36:18;;;;;;;10.27;7.90;;;;;;;1.62;71.34;97587.22;5053410;28;20174;-70
2021/01/16 10:38:52;;;;;;;8.67;6.90;;;;;;;1.68;69.60;97584.88;5045094;28;20181;-70
2021/01/16 10:41:35;;;;;;;8.23;6.23;;;;;;;1.64;67.95;97570.63;5053043;28;20239;-69
2021/01/16 10:44:03;;;;;;;8.53;6.20;;;;;;;1.73;67.22;97574.06;5038635;28;20197;-71
2021/01/16 10:46:46;;;;;;;7.57;6.00;;;;;;;1.74;67.28;97569.72;5051840;28;20178;-69
2021/01/16 10:49:28;;;;;;;7.17;5.93;;;;;;;1.82;65.70;97568.00;5052749;28;20193;-68
2021/01/16 10:51:57;;;;;;;8.37;6.30;;;;;;;2.01;66.65;97564.38;5052736;28;20178;-68
2021/01/16 10:54:23;;;;;;;8.50;6.30;;;;;;;2.05;65.18;97556.19;5052678;28;20189;-69
2021/01/16 10:56:57;;;;;;;7.43;6.07;;;;;;;2.04;66.55;97556.34;5054008;28;20194;-68
2021/01/16 10:59:26;;;;;;;8.37;6.63;;;;;;;2.19;66.18;97547.03;5052748;28;20185;-68
2021/01/16 11:01:52;;;;;;;7.00;6.13;;;;;;;1.95;64.53;97549.50;5034556;28;20498;-68
2021/01/16 11:04:20;;;;;;;6.77;5.57;;;;;;;2.21;64.75;97547.69;5052519;28;20597;-68
2021/01/16 11:06:51;;;;;;;8.67;6.30;;;;;;;2.18;63.46;97536.81;5053222;28;20194;-68
2021/01/16 11:09:42;;;;;;;9.37;6.27;;;;;;;2.22;63.78;97546.72;5051940;28;20667;-66
2021/01/16 11:12:09;;;;;;;7.07;5.60;;;;;;;2.33;62.03;97537.88;5041970;28;20623;-68
2021/01/16 11:14:36;;;;;;;9.17;6.43;;;;;;;2.38;62.71;97538.22;5045896;28;20178;-68
2021/01/16 11:17:03;;;;;;;9.17;6.43;;;;;;;1.90;62.75;97537.03;5042278;28;20178;-70
2021/01/16 11:19:34;;;;;;;8.90;6.37;;;;;;;2.16;67.58;97529.25;5041961;28;20209;-67
2021/01/16 11:22:08;;;;;;;7.97;6.50;;;;;;;2.08;63.35;97526.63;5052212;28;20545;-71
2021/01/16 11:24:55;;;;;;;7.40;5.60;;;;;;;2.24;61.35;97526.69;5052483;28;20192;-69
2021/01/16 11:27:22;;;;;;;8.00;6.00;;;;;;;2.17;63.73;97528.28;5051817;28;20327;-70
2021/01/16 11:29:48;;;;;;;6.60;5.63;;;;;;;2.39;63.05;97526.91;5053105;28;20658;-69
2021/01/16 11:32:17;;;;;;;7.87;6.50;;;;;;;2.35;62.63;97518.63;5051097;28;20276;-68
2021/01/16 11:35:11;;;;;;;7.47;5.83;;;;;;;2.46;61.83;97520.94;5049546;28;20185;-69